Doris — 9HA2632 — position and weather

sailwx.info

Track history (hours):
 
Tides and Currents Weather Stations Pressure Air Temp Water Temp Dewpoint Dewpoint Depression Visibility Wind Speed Wind Dir Waves Ship Positions

Doris

Last reported at 2017-Aug-09 16:33 UTC. Time now 2017-Aug-23 13:50 UTC.
Position N 22°31' E 119°57'.
Warning: this ship's position is 13 days out of date.

Length 182 m; draft 6.1 m.

Type: Cargo ship. MMSI: 215080000.

Date/timePositionNaut miles runAvg speedWind from/ knotsBaromVisibWave heightAir tempDewpointWater temp
2017-Aug-09 16:33N 22°31' E 119°57'313.1
2017-Aug-09 16:17N 22°34' E 119°57'413.1
2017-Aug-09 16:00N 22°38' E 119°57'713.0
2017-Aug-09 15:29N 22°44' E 119°56'  
2017-Aug-04 23:23N 22°50' E 119°57'513.8
2017-Aug-04 23:00N 22°44' E 119°57'713.7
2017-Aug-04 22:30N 22°37' E 119°57'713.5
2017-Aug-04 21:59N 22°30' E 119°56'713.5
2017-Aug-04 21:30N 22°24' E 119°56'  
Track history (hours):
 
Tides and Currents Weather Stations Pressure Air Temp Water Temp Dewpoint Dewpoint Depression Visibility Wind Speed Wind Dir Waves Ship Positions

Doris

Last reported at 2017-Aug-09 16:33 UTC. Time now 2017-Aug-23 13:50 UTC.
Position N 22°31' E 119°57'.
Warning: this ship's position is 13 days out of date.

Length 182 m; draft 6.1 m.

Type: Cargo ship. MMSI: 215080000.

Date/timePositionNaut miles runAvg speedWind from/ knotsBaromVisibWave heightAir tempDewpointWater temp
2017-Aug-09 16:33N 22°31' E 119°57'313.1
2017-Aug-09 16:17N 22°34' E 119°57'413.1
2017-Aug-09 16:00N 22°38' E 119°57'713.0
2017-Aug-09 15:29N 22°44' E 119°56'  
2017-Aug-04 23:23N 22°50' E 119°57'513.8
2017-Aug-04 23:00N 22°44' E 119°57'713.7
2017-Aug-04 22:30N 22°37' E 119°57'713.5
2017-Aug-04 21:59N 22°30' E 119°56'713.5
2017-Aug-04 21:30N 22°24' E 119°56'  

Dump ship's entire track history